createdAt,value
2019-05-13T00:00:19.067Z,14.91
2019-05-13T00:02:50.796Z,14.95
2019-05-13T00:05:23.371Z,14.90
2019-05-13T00:07:54.877Z,14.89
2019-05-13T00:10:26.424Z,14.90
2019-05-13T00:12:59.484Z,14.84
2019-05-13T00:15:30.826Z,14.86
2019-05-13T00:18:04.038Z,14.79
2019-05-13T00:20:35.392Z,14.82
2019-05-13T00:23:06.818Z,14.78
2019-05-13T00:25:38.307Z,14.84
2019-05-13T00:28:09.840Z,14.70
2019-05-13T00:30:41.382Z,14.85
2019-05-13T00:33:13.933Z,14.76
2019-05-13T00:35:45.426Z,14.75
2019-05-13T00:38:17.994Z,14.87
2019-05-13T00:40:49.271Z,14.78
2019-05-13T00:43:20.675Z,14.76
2019-05-13T00:45:53.307Z,14.81
2019-05-13T00:48:24.758Z,14.83
2019-05-13T00:50:56.259Z,14.83
2019-05-13T00:53:27.554Z,14.86
2019-05-13T00:55:59.019Z,14.85
2019-05-13T00:58:30.328Z,14.87
2019-05-13T01:01:03.606Z,14.83
2019-05-13T01:03:34.844Z,14.73
2019-05-13T01:06:06.302Z,14.63
2019-05-13T01:08:37.662Z,14.71
2019-05-13T01:11:09.097Z,14.81
2019-05-13T01:13:40.481Z,14.81
2019-05-13T01:16:13.975Z,14.81
2019-05-13T01:18:45.108Z,14.79
2019-05-13T01:21:16.543Z,14.89
2019-05-13T01:23:48.007Z,14.82
2019-05-13T01:26:19.343Z,14.88
2019-05-13T01:28:50.795Z,14.88
2019-05-13T01:31:23.826Z,14.98
2019-05-13T01:33:55.463Z,14.73
2019-05-13T01:36:27.016Z,14.85
2019-05-13T01:38:59.984Z,14.93
2019-05-13T01:41:33.395Z,14.90
2019-05-13T01:44:04.600Z,14.90
2019-05-13T01:46:35.999Z,14.89
2019-05-13T01:49:07.430Z,14.86
2019-05-13T01:51:38.693Z,14.91
2019-05-13T01:54:14.234Z,14.87
2019-05-13T01:56:45.707Z,15.03
2019-05-13T01:59:17.116Z,14.97
2019-05-13T02:01:48.527Z,14.97
2019-05-13T02:04:19.850Z,14.92
2019-05-13T02:06:51.261Z,14.82
2019-05-13T02:09:24.473Z,14.96
2019-05-13T02:11:55.316Z,14.96
2019-05-13T02:14:26.463Z,14.80
2019-05-13T02:16:57.886Z,14.82
2019-05-13T02:19:29.336Z,14.86
2019-05-13T02:22:03.967Z,14.99
2019-05-13T02:24:35.004Z,14.86
2019-05-13T02:27:06.306Z,15.04
2019-05-13T02:29:37.789Z,14.97
2019-05-13T02:32:09.043Z,14.93
2019-05-13T02:34:43.752Z,14.88
2019-05-13T02:37:13.524Z,14.90
2019-05-13T02:39:44.825Z,14.87
2019-05-13T02:42:16.785Z,14.87
2019-05-13T02:44:48.255Z,14.85
2019-05-13T02:47:22.553Z,14.93
2019-05-13T02:49:53.903Z,14.93
2019-05-13T02:52:25.272Z,14.82
2019-05-13T02:54:56.721Z,14.96
2019-05-13T02:57:28.099Z,15.04
2019-05-13T03:00:03.705Z,15.08
2019-05-13T03:02:32.926Z,15.28
2019-05-13T03:05:08.284Z,15.22
2019-05-13T03:07:42.564Z,15.14
2019-05-13T03:10:14.095Z,15.36
2019-05-13T03:12:45.360Z,15.24
2019-05-13T03:15:17.219Z,15.13
2019-05-13T03:17:54.330Z,15.11
2019-05-13T03:20:25.773Z,15.25
2019-05-13T03:22:57.273Z,15.22
2019-05-13T03:25:28.675Z,15.24
2019-05-13T03:28:03.079Z,15.19
2019-05-13T03:30:35.478Z,15.27
2019-05-13T03:33:10.859Z,15.39
2019-05-13T03:35:45.725Z,15.58
2019-05-13T03:38:14.918Z,15.57
2019-05-13T03:40:48.101Z,15.67
2019-05-13T03:43:22.930Z,15.35
2019-05-13T03:45:55.788Z,15.50
2019-05-13T03:48:27.148Z,15.61
2019-05-13T03:50:58.648Z,15.59
2019-05-13T03:53:32.540Z,15.50
2019-05-13T03:56:03.021Z,15.09
2019-05-13T03:58:34.297Z,15.20
2019-05-13T04:01:05.886Z,15.29
2019-05-13T04:03:37.376Z,15.22
2019-05-13T04:06:08.888Z,15.52
2019-05-13T04:08:43.250Z,15.33
2019-05-13T04:11:13.660Z,15.37
2019-05-13T04:13:45.068Z,15.56
2019-05-13T04:16:16.444Z,15.86
2019-05-13T04:18:47.968Z,15.94
2019-05-13T04:21:22.588Z,16.11
2019-05-13T04:23:53.349Z,16.20
2019-05-13T04:26:25.044Z,16.55
2019-05-13T04:28:56.462Z,16.65
2019-05-13T04:31:27.908Z,16.09
2019-05-13T04:34:02.108Z,16.16
2019-05-13T04:36:32.100Z,15.92
2019-05-13T04:39:05.207Z,16.14
2019-05-13T04:41:36.692Z,16.36
2019-05-13T04:44:08.024Z,16.11
2019-05-13T04:46:43.038Z,16.42
2019-05-13T04:49:12.637Z,16.63
2019-05-13T04:51:43.749Z,16.75
2019-05-13T04:54:15.093Z,17.19
2019-05-13T04:56:46.531Z,17.02
2019-05-13T04:59:17.873Z,16.71
2019-05-13T05:02:37.290Z,16.77
2019-05-13T05:05:26.677Z,16.86
2019-05-13T05:08:13.261Z,16.50
2019-05-13T05:11:13.038Z,16.79
2019-05-13T05:14:19.149Z,16.67
2019-05-13T05:17:22.294Z,16.93
2019-05-13T05:20:18.158Z,16.89
2019-05-13T05:23:04.300Z,16.89
2019-05-13T05:26:15.217Z,16.89
2019-05-13T05:29:07.677Z,16.74
2019-05-13T05:31:48.211Z,16.98
2019-05-13T05:34:51.970Z,17.05
2019-05-13T05:37:44.262Z,17.49
2019-05-13T05:40:30.917Z,17.20
2019-05-13T05:42:52.440Z,17.06
2019-05-13T05:45:24.141Z,17.38
2019-05-13T05:48:01.557Z,18.06
2019-05-13T05:50:35.587Z,18.31
2019-05-13T05:53:07.127Z,18.13
2019-05-13T05:55:41.610Z,18.37
2019-05-13T05:58:14.526Z,18.83
2019-05-13T06:00:48.364Z,18.85
2019-05-13T06:03:21.937Z,18.99
2019-05-13T06:05:53.252Z,18.57
2019-05-13T06:08:24.811Z,19.00
2019-05-13T06:10:56.130Z,18.48
2019-05-13T06:13:27.476Z,18.93
2019-05-13T06:15:58.914Z,18.80
2019-05-13T06:18:32.482Z,19.38
2019-05-13T06:21:03.417Z,19.10
2019-05-13T06:23:34.943Z,18.75
2019-05-13T06:26:06.343Z,18.92
2019-05-13T06:28:37.791Z,19.49
2019-05-13T06:31:09.110Z,19.08
2019-05-13T06:33:42.198Z,18.83
2019-05-13T06:36:13.052Z,18.87
2019-05-13T06:38:44.106Z,19.03
2019-05-13T06:41:15.522Z,19.20
2019-05-13T06:43:46.963Z,19.13
2019-05-13T06:46:18.628Z,19.70
2019-05-13T06:48:52.078Z,19.40
2019-05-13T06:51:23.163Z,19.38
2019-05-13T06:53:54.549Z,19.35
2019-05-13T06:56:26.080Z,19.97
2019-05-13T06:58:57.581Z,19.70
2019-05-13T07:01:29.133Z,19.77
2019-05-13T07:04:02.413Z,19.90
2019-05-13T07:06:33.130Z,20.14
2019-05-13T07:09:06.455Z,19.68
2019-05-13T07:11:37.801Z,19.52
2019-05-13T07:14:12.358Z,19.79
2019-05-13T07:16:42.846Z,19.84
2019-05-13T07:19:14.243Z,19.72
2019-05-13T07:21:45.693Z,19.88
2019-05-13T07:24:17.071Z,20.23
2019-05-13T07:26:48.494Z,20.25
2019-05-13T07:29:20.477Z,20.58
2019-05-13T07:31:52.648Z,20.94
2019-05-13T07:34:24.860Z,20.99
2019-05-13T07:36:56.367Z,21.02
2019-05-13T07:39:28.272Z,21.35
2019-05-13T07:42:02.689Z,21.26
2019-05-13T07:44:32.592Z,20.90
2019-05-13T07:47:04.404Z,21.42
2019-05-13T07:49:35.737Z,21.96
2019-05-13T07:52:07.468Z,21.94
2019-05-13T07:54:41.513Z,21.94
2019-05-13T07:57:12.475Z,21.84
2019-05-13T07:59:43.939Z,21.37
2019-05-13T08:02:15.492Z,21.81
2019-05-13T08:04:49.391Z,21.87
2019-05-13T08:07:22.441Z,21.89
2019-05-13T08:09:55.717Z,22.20
2019-05-13T08:12:25.266Z,22.40
2019-05-13T08:14:56.725Z,22.15
2019-05-13T08:17:28.385Z,22.11
2019-05-13T08:20:02.622Z,21.59
2019-05-13T08:22:32.263Z,21.84
2019-05-13T08:25:03.495Z,21.97
2019-05-13T08:27:35.314Z,21.70
2019-05-13T08:30:08.648Z,21.64
2019-05-13T08:32:41.884Z,22.04
2019-05-13T08:35:13.594Z,22.85
2019-05-13T08:37:44.943Z,23.11
2019-05-13T08:40:19.971Z,23.51
2019-05-13T08:42:51.931Z,23.45
2019-05-13T08:45:22.462Z,23.28
2019-05-13T08:47:53.741Z,23.22
2019-05-13T08:50:25.227Z,23.23
2019-05-13T08:52:56.681Z,23.46
2019-05-13T08:55:28.130Z,23.14
2019-05-13T08:58:01.625Z,22.88
2019-05-13T09:00:48.503Z,22.81
2019-05-13T09:03:21.517Z,22.89
2019-05-13T09:05:54.566Z,22.54
2019-05-13T09:08:26.610Z,22.83
2019-05-13T09:10:58.008Z,22.80
2019-05-13T09:13:29.383Z,22.51
2019-05-13T09:16:02.441Z,21.80
2019-05-13T09:18:34.142Z,21.97
2019-05-13T09:21:05.603Z,22.06
2019-05-13T09:23:36.955Z,21.86
2019-05-13T09:26:08.388Z,22.28
2019-05-13T09:28:41.710Z,22.07
2019-05-13T09:31:12.773Z,21.58
2019-05-13T09:33:43.883Z,22.03
2019-05-13T09:36:15.558Z,22.49
2019-05-13T09:38:46.937Z,23.32
2019-05-13T09:41:21.325Z,23.26
2019-05-13T09:43:51.728Z,23.02
2019-05-13T09:46:23.109Z,23.30
2019-05-13T09:49:11.518Z,23.08
2019-05-13T09:51:27.468Z,23.08
2019-05-13T09:54:01.136Z,23.37
2019-05-13T09:56:31.926Z,22.95
2019-05-13T09:59:03.414Z,22.88
2019-05-13T10:01:34.817Z,22.81
2019-05-13T10:04:06.567Z,22.94
2019-05-13T10:06:38.060Z,22.66
2019-05-13T10:09:09.500Z,22.21
2019-05-13T10:11:41.022Z,22.30
2019-05-13T10:14:12.506Z,22.14
2019-05-13T10:16:43.826Z,21.94
2019-05-13T10:19:15.184Z,22.11
2019-05-13T10:21:46.488Z,22.28
2019-05-13T10:24:19.058Z,22.17
2019-05-13T10:26:51.513Z,21.87
2019-05-13T10:29:23.499Z,21.52
2019-05-13T10:31:54.911Z,21.26
2019-05-13T10:34:26.383Z,21.15
2019-05-13T10:36:58.331Z,21.39
2019-05-13T10:39:29.862Z,21.00
2019-05-13T10:42:03.687Z,21.35
2019-05-13T10:44:33.669Z,21.47
2019-05-13T10:47:04.968Z,21.36
2019-05-13T10:49:36.360Z,21.62
2019-05-13T10:52:07.844Z,21.24
2019-05-13T10:54:41.089Z,21.50
2019-05-13T10:57:13.761Z,21.69
2019-05-13T10:59:45.385Z,21.84
2019-05-13T11:02:16.852Z,21.81
2019-05-13T11:04:48.211Z,22.21
2019-05-13T11:07:22.257Z,22.83
2019-05-13T11:09:52.975Z,22.80
2019-05-13T11:12:28.530Z,22.47
2019-05-13T11:14:57.505Z,22.58
2019-05-13T11:17:30.902Z,22.52
2019-05-13T11:20:03.471Z,22.41
2019-05-13T11:22:34.426Z,22.46
2019-05-13T11:25:06.715Z,22.57
2019-05-13T11:27:38.050Z,22.49
2019-05-13T11:30:09.845Z,21.94
2019-05-13T11:32:42.734Z,21.54
2019-05-13T11:35:15.954Z,21.94
2019-05-13T11:37:47.519Z,22.23
2019-05-13T11:40:19.155Z,21.89
2019-05-13T11:42:52.617Z,21.97
2019-05-13T11:45:23.843Z,22.51
2019-05-13T11:47:55.372Z,22.44
2019-05-13T11:50:26.825Z,22.36
2019-05-13T11:52:59.077Z,22.61
2019-05-13T11:55:30.421Z,22.71
2019-05-13T11:58:02.867Z,22.72
2019-05-13T12:00:46.100Z,22.66
2019-05-13T12:03:17.880Z,22.35
2019-05-13T12:05:49.434Z,22.46
2019-05-13T12:08:22.740Z,22.41
2019-05-13T12:10:53.833Z,22.28
2019-05-13T12:13:25.369Z,22.10
2019-05-13T12:15:57.148Z,21.81
2019-05-13T12:18:28.643Z,21.70
2019-05-13T12:21:03.512Z,21.05
2019-05-13T12:23:32.392Z,20.65
2019-05-13T12:26:05.139Z,20.36
2019-05-13T12:28:36.911Z,19.95
2019-05-13T12:31:08.332Z,18.75
2019-05-13T12:33:43.799Z,17.74
2019-05-13T12:36:17.877Z,17.41
2019-05-13T12:38:45.161Z,17.18
2019-05-13T12:41:16.515Z,17.31
2019-05-13T12:43:47.927Z,17.46
2019-05-13T12:46:19.721Z,17.56
2019-05-13T12:48:51.186Z,17.72
2019-05-13T12:51:22.913Z,17.76
2019-05-13T12:53:54.458Z,17.80
2019-05-13T12:56:26.103Z,17.87
2019-05-13T12:58:57.500Z,17.91
2019-05-13T13:01:28.964Z,18.05
2019-05-13T13:04:02.216Z,18.11
2019-05-13T13:06:40.595Z,18.10
2019-05-13T13:09:07.506Z,18.09
2019-05-13T13:11:38.985Z,18.11
2019-05-13T13:14:15.112Z,18.23
2019-05-13T13:16:43.537Z,18.23
2019-05-13T13:19:15.323Z,18.33
2019-05-13T13:21:46.751Z,18.35
2019-05-13T13:24:18.241Z,18.37
2019-05-13T13:26:52.566Z,18.40
2019-05-13T13:29:23.092Z,18.45
2019-05-13T13:31:55.807Z,18.46
2019-05-13T13:34:28.679Z,18.46
2019-05-13T13:37:00.183Z,18.54
2019-05-13T13:39:31.953Z,18.60
2019-05-13T13:42:05.861Z,18.65
2019-05-13T13:44:38.700Z,18.71
2019-05-13T13:47:14.666Z,18.73
2019-05-13T13:49:44.023Z,18.83
2019-05-13T13:52:17.877Z,18.91
2019-05-13T13:54:58.938Z,19.06
2019-05-13T13:57:25.609Z,19.18
2019-05-13T14:00:21.027Z,19.43
2019-05-13T14:02:28.581Z,19.47
2019-05-13T14:05:04.884Z,19.48
2019-05-13T14:07:37.842Z,19.52
2019-05-13T14:10:07.419Z,19.61
2019-05-13T14:12:41.548Z,19.66
2019-05-13T14:15:13.729Z,19.67
2019-05-13T14:17:45.174Z,19.69
2019-05-13T14:20:16.759Z,19.57
2019-05-13T14:22:48.273Z,19.61
2019-05-13T14:25:22.235Z,19.56
2019-05-13T14:27:52.794Z,19.56
2019-05-13T14:30:24.314Z,19.55
2019-05-13T14:32:56.062Z,19.48
2019-05-13T14:35:27.585Z,19.53
2019-05-13T14:37:58.905Z,19.50
2019-05-13T14:40:31.972Z,19.60
2019-05-13T14:43:03.691Z,19.65
2019-05-13T14:45:35.967Z,19.69
2019-05-13T14:48:07.371Z,19.72
2019-05-13T14:50:38.717Z,19.73
2019-05-13T14:53:10.303Z,19.62
2019-05-13T14:55:42.063Z,19.67
2019-05-13T14:58:13.788Z,19.55
2019-05-13T15:00:45.332Z,19.55
2019-05-13T15:03:17.125Z,19.42
2019-05-13T15:05:48.668Z,19.36
2019-05-13T15:08:23.226Z,19.36
2019-05-13T15:10:54.921Z,19.35
2019-05-13T15:13:31.330Z,19.23
2019-05-13T15:16:05.349Z,19.16
2019-05-13T15:18:36.764Z,19.15
2019-05-13T15:21:08.370Z,19.17
2019-05-13T15:23:41.860Z,19.12
2019-05-13T15:26:12.770Z,19.15
2019-05-13T15:28:44.092Z,19.12
2019-05-13T15:31:15.461Z,19.13
2019-05-13T15:33:52.134Z,19.06
2019-05-13T15:36:22.847Z,18.98
2019-05-13T15:38:56.176Z,19.00
2019-05-13T15:41:27.860Z,18.89
2019-05-13T15:44:03.198Z,18.90
2019-05-13T15:46:32.439Z,18.89
2019-05-13T15:49:03.830Z,18.80
2019-05-13T15:51:37.322Z,18.94
2019-05-13T15:54:08.875Z,18.85
2019-05-13T15:56:40.326Z,18.80
2019-05-13T15:59:12.578Z,18.89
2019-05-13T16:01:44.996Z,18.83
2019-05-13T16:04:18.682Z,18.79
2019-05-13T16:06:52.138Z,18.71
2019-05-13T16:09:23.710Z,18.73
2019-05-13T16:11:55.158Z,18.73
2019-05-13T16:14:26.613Z,18.72
2019-05-13T16:16:57.881Z,18.69
2019-05-13T16:19:35.650Z,18.69
2019-05-13T16:22:07.301Z,18.71
2019-05-13T16:24:41.299Z,18.72
2019-05-13T16:27:12.162Z,18.52
2019-05-13T16:29:43.888Z,18.52
2019-05-13T16:32:15.520Z,18.47
2019-05-13T16:34:46.925Z,18.40
2019-05-13T16:37:18.375Z,18.38
2019-05-13T16:39:52.008Z,18.34
2019-05-13T16:42:22.873Z,18.26
2019-05-13T16:44:54.397Z,18.10
2019-05-13T16:47:28.623Z,18.12
2019-05-13T16:50:02.697Z,18.07
2019-05-13T16:52:34.317Z,18.08
2019-05-13T16:55:07.570Z,17.95
2019-05-13T16:57:42.312Z,17.93
2019-05-13T17:00:14.442Z,17.97
2019-05-13T17:02:46.089Z,17.88
2019-05-13T17:05:18.009Z,17.89
2019-05-13T17:07:51.538Z,17.99
2019-05-13T17:10:23.056Z,18.01
2019-05-13T17:12:54.387Z,17.83
2019-05-13T17:15:26.601Z,17.75
2019-05-13T17:18:09.285Z,17.72
2019-05-13T17:20:35.351Z,17.64
2019-05-13T17:23:08.368Z,17.54
2019-05-13T17:25:42.135Z,17.41
2019-05-13T17:28:14.293Z,17.27
2019-05-13T17:30:45.757Z,17.25
2019-05-13T17:33:18.631Z,17.22
2019-05-13T17:35:50.076Z,17.08
2019-05-13T17:38:21.886Z,17.11
2019-05-13T17:40:53.328Z,17.16
2019-05-13T17:43:26.256Z,17.13
2019-05-13T17:45:57.707Z,17.03
2019-05-13T17:48:32.094Z,17.11
2019-05-13T17:51:02.269Z,16.86
2019-05-13T17:53:33.784Z,17.08
2019-05-13T17:56:06.788Z,16.98
2019-05-13T17:58:38.198Z,16.95
2019-05-13T18:01:12.465Z,16.89
2019-05-13T18:03:43.877Z,16.88
2019-05-13T18:06:15.218Z,17.00
2019-05-13T18:08:48.397Z,16.80
2019-05-13T18:11:22.017Z,16.46
2019-05-13T18:13:55.004Z,16.06
2019-05-13T18:16:26.491Z,15.95
2019-05-13T18:18:58.104Z,15.82
2019-05-13T18:21:31.976Z,15.81
2019-05-13T18:24:03.747Z,15.69
2019-05-13T18:26:35.338Z,15.75
2019-05-13T18:29:06.853Z,15.86
2019-05-13T18:31:38.230Z,15.85
2019-05-13T18:34:12.025Z,15.73
2019-05-13T18:36:45.932Z,15.73
2019-05-13T18:39:17.418Z,15.69
2019-05-13T18:41:48.769Z,15.69
2019-05-13T18:44:20.128Z,15.58
2019-05-13T18:46:52.429Z,15.65
2019-05-13T18:49:23.915Z,15.71
2019-05-13T18:51:55.186Z,15.79
2019-05-13T18:54:26.566Z,15.85
2019-05-13T18:56:57.972Z,15.88
2019-05-13T18:59:29.464Z,15.89
2019-05-13T19:02:01.689Z,15.91
2019-05-13T19:04:34.215Z,15.92
2019-05-13T19:07:07.769Z,15.95
2019-05-13T19:09:41.666Z,15.89
2019-05-13T19:12:12.693Z,16.13
2019-05-13T19:14:44.300Z,16.02
2019-05-13T19:17:15.786Z,16.04
2019-05-13T19:19:47.388Z,16.03
2019-05-13T19:22:21.285Z,16.05
2019-05-13T19:24:52.224Z,16.04
2019-05-13T19:27:23.580Z,16.08
2019-05-13T19:29:54.880Z,16.09
2019-05-13T19:32:26.277Z,16.12
2019-05-13T19:34:57.757Z,16.02
2019-05-13T19:37:31.603Z,16.07
2019-05-13T19:40:02.441Z,16.02
2019-05-13T19:42:34.336Z,15.99
2019-05-13T19:45:05.987Z,16.00
2019-05-13T19:47:37.500Z,15.97
2019-05-13T19:50:08.996Z,15.93
2019-05-13T19:52:41.503Z,15.92
2019-05-13T19:55:13.049Z,15.97
2019-05-13T19:57:44.669Z,15.95
2019-05-13T20:00:16.588Z,15.98
2019-05-13T20:02:47.970Z,16.00
2019-05-13T20:05:21.103Z,15.99
2019-05-13T20:07:52.582Z,16.04
2019-05-13T20:10:23.881Z,16.03
2019-05-13T20:12:55.440Z,16.09
2019-05-13T20:15:26.889Z,16.12
2019-05-13T20:17:58.361Z,16.09
2019-05-13T20:20:31.752Z,16.09
2019-05-13T20:23:02.482Z,16.10
2019-05-13T20:25:33.696Z,16.15
2019-05-13T20:28:05.288Z,16.10
2019-05-13T20:30:36.912Z,16.15
2019-05-13T20:33:08.234Z,16.13
2019-05-13T20:35:41.529Z,16.14
2019-05-13T20:38:12.667Z,16.17
2019-05-13T20:40:44.095Z,16.13
2019-05-13T20:43:15.480Z,16.17
2019-05-13T20:45:46.849Z,16.08
2019-05-13T20:48:18.187Z,16.11
2019-05-13T20:50:51.910Z,16.11
2019-05-13T20:53:23.466Z,16.02
2019-05-13T20:55:54.909Z,15.99
2019-05-13T20:58:26.358Z,15.98
2019-05-13T21:00:57.812Z,15.98
2019-05-13T21:03:31.395Z,15.97
2019-05-13T21:06:02.453Z,15.97
2019-05-13T21:08:33.904Z,15.94
2019-05-13T21:11:05.354Z,15.87
2019-05-13T21:13:36.600Z,15.78
2019-05-13T21:16:07.910Z,15.71
2019-05-13T21:18:39.231Z,15.72
2019-05-13T21:21:11.710Z,15.69
2019-05-13T21:23:43.283Z,15.68
2019-05-13T21:26:15.718Z,15.67
2019-05-13T21:28:47.359Z,15.61
2019-05-13T21:31:21.499Z,15.64
2019-05-13T21:33:53.162Z,15.60
2019-05-13T21:36:24.503Z,15.55
2019-05-13T21:38:55.954Z,15.53
2019-05-13T21:41:27.375Z,15.47
2019-05-13T21:44:01.180Z,15.53
2019-05-13T21:46:31.918Z,15.50
2019-05-13T21:49:03.408Z,15.49
2019-05-13T21:51:34.722Z,15.44
2019-05-13T21:54:07.224Z,15.46
2019-05-13T21:56:39.128Z,15.35
2019-05-13T21:59:10.498Z,15.33
2019-05-13T22:01:42.457Z,15.37
2019-05-13T22:04:14.258Z,15.40
2019-05-13T22:06:45.784Z,15.41
2019-05-13T22:09:17.218Z,15.35
2019-05-13T22:11:51.133Z,15.34
2019-05-13T22:14:22.703Z,15.27
2019-05-13T22:16:56.524Z,15.26
2019-05-13T22:19:27.087Z,15.25
2019-05-13T22:21:58.446Z,15.32
2019-05-13T22:24:31.187Z,15.18
2019-05-13T22:27:02.882Z,15.18
2019-05-13T22:29:34.294Z,15.16
2019-05-13T22:32:05.623Z,15.18
2019-05-13T22:34:37.022Z,15.17
2019-05-13T22:37:08.417Z,15.13
2019-05-13T22:39:41.918Z,15.15
2019-05-13T22:42:12.971Z,15.15
2019-05-13T22:44:44.475Z,15.16
2019-05-13T22:47:15.913Z,14.87
2019-05-13T22:49:47.208Z,15.08
2019-05-13T22:52:18.699Z,15.06
2019-05-13T22:54:51.814Z,15.12
2019-05-13T22:57:23.307Z,15.08
2019-05-13T22:59:54.460Z,15.05
2019-05-13T23:02:25.908Z,15.08
2019-05-13T23:04:57.375Z,14.98
2019-05-13T23:07:31.427Z,14.96
2019-05-13T23:10:02.028Z,14.98
2019-05-13T23:12:33.449Z,14.95
2019-05-13T23:15:06.745Z,14.93
2019-05-13T23:17:37.473Z,14.90
2019-05-13T23:20:08.728Z,14.90
2019-05-13T23:22:41.429Z,14.83
2019-05-13T23:25:13.482Z,14.79
2019-05-13T23:27:44.991Z,14.84
2019-05-13T23:30:16.527Z,14.81
2019-05-13T23:32:47.845Z,14.80
2019-05-13T23:35:21.532Z,14.79
2019-05-13T23:37:52.307Z,14.72
2019-05-13T23:40:23.708Z,14.74
2019-05-13T23:42:57.245Z,14.69
2019-05-13T23:45:28.661Z,14.67
2019-05-13T23:48:01.555Z,14.70
2019-05-13T23:50:35.261Z,14.66
2019-05-13T23:53:06.804Z,14.72
2019-05-13T23:55:38.269Z,14.69
2019-05-13T23:58:12.571Z,14.66
